Time;durP1;ratioP1;P1;durP2;ratioP2;P2;SDS_P1;SDS_P2;PMS_P1;PMS_P2;Temp;Humidity;BMP_temperature;BMP_pressure;BME280_temperature;BME280_humidity;BME280_pressure;Samples;Min_cycle;Max_cycle;Signal;HPM_P1;HPM_P2
2023/12/12 00:00:34;;;;;;;14.73;5.95;;;5.00;99.90;;;;;;4984637;28;20039;-74
2023/12/12 00:03:00;;;;;;;10.20;5.68;;;4.90;99.90;;;;;;4984222;28;20057;-73
2023/12/12 00:05:26;;;;;;;16.92;5.85;;;4.90;99.90;;;;;;5013040;28;20042;-74
2023/12/12 00:07:52;;;;;;;9.70;5.00;;;4.80;99.90;;;;;;4983453;28;20046;-69
2023/12/12 00:10:18;;;;;;;11.55;4.63;;;4.80;99.90;;;;;;4991364;28;20055;-69
2023/12/12 00:12:44;;;;;;;12.68;4.65;;;4.80;99.90;;;;;;4999468;28;20478;-69
2023/12/12 00:15:10;;;;;;;9.30;4.60;;;4.80;99.90;;;;;;4967496;28;20050;-69
2023/12/12 00:17:38;;;;;;;11.35;4.50;;;4.80;99.90;;;;;;4995970;28;20093;-69
2023/12/12 00:20:08;;;;;;;11.60;4.50;;;4.80;99.90;;;;;;4995901;28;20103;-69
2023/12/12 00:22:34;;;;;;;8.50;3.50;;;4.80;99.90;;;;;;4977840;28;20513;-69
2023/12/12 00:25:00;;;;;;;11.85;4.18;;;4.80;99.90;;;;;;4978594;28;20099;-69
2023/12/12 00:27:26;;;;;;;12.70;3.88;;;4.80;99.90;;;;;;5015361;28;20054;-69
2023/12/12 00:29:52;;;;;;;8.70;3.78;;;4.70;99.90;;;;;;4982256;28;20104;-69
2023/12/12 00:32:18;;;;;;;10.35;3.92;;;4.70;99.90;;;;;;4967485;28;20043;-69
2023/12/12 00:34:43;;;;;;;8.63;3.38;;;4.70;99.90;;;;;;4982282;28;20039;-69
2023/12/12 00:37:09;;;;;;;12.30;3.53;;;4.60;99.90;;;;;;4984260;28;20050;-69
2023/12/12 00:39:41;;;;;;;8.60;2.95;;;4.60;99.90;;;;;;4997858;28;20038;-69
2023/12/12 00:42:07;;;;;;;11.32;3.22;;;4.60;99.90;;;;;;4983436;28;20046;-69
2023/12/12 00:44:36;;;;;;;8.60;3.33;;;4.60;99.90;;;;;;4981882;28;20099;-69
2023/12/12 00:47:02;;;;;;;12.65;3.30;;;4.60;99.90;;;;;;4979212;28;20046;-69
2023/12/12 00:49:28;;;;;;;10.27;3.30;;;4.60;99.90;;;;;;4978948;28;20043;-69
2023/12/12 00:51:54;;;;;;;10.25;3.50;;;4.60;99.90;;;;;;4967278;28;20065;-69
2023/12/12 00:54:20;;;;;;;12.45;3.25;;;4.60;99.90;;;;;;4966459;28;20054;-69
2023/12/12 00:56:47;;;;;;;9.70;3.28;;;4.50;99.90;;;;;;4983201;28;20409;-69
2023/12/12 00:59:14;;;;;;;9.90;3.45;;;4.50;99.90;;;;;;5013558;28;20054;-70
2023/12/12 01:01:40;;;;;;;8.98;3.22;;;4.50;99.90;;;;;;4967576;28;20073;-69
2023/12/12 01:04:07;;;;;;;9.18;3.20;;;4.50;99.90;;;;;;5014479;28;20526;-69
2023/12/12 01:06:36;;;;;;;7.03;2.83;;;4.40;99.90;;;;;;5014139;28;20045;-69
2023/12/12 01:09:02;;;;;;;9.25;3.13;;;4.40;99.90;;;;;;4980163;28;20502;-69
2023/12/12 01:11:28;;;;;;;9.48;3.28;;;4.30;99.90;;;;;;4994366;28;20042;-69
2023/12/12 01:13:53;;;;;;;7.75;2.83;;;4.30;99.90;;;;;;4981415;28;20418;-69
2023/12/12 01:16:19;;;;;;;15.02;3.40;;;4.20;99.90;;;;;;5004339;28;20042;-69
2023/12/12 01:18:45;;;;;;;7.20;3.10;;;4.20;99.90;;;;;;4989134;28;20113;-69
2023/12/12 01:21:11;;;;;;;9.95;3.22;;;4.20;99.90;;;;;;4988499;28;20050;-69
2023/12/12 01:24:06;;;;;;;9.60;3.33;;;4.20;99.90;;;;;;5014621;28;20098;-69
2023/12/12 01:26:31;;;;;;;8.60;3.33;;;4.20;99.90;;;;;;4981709;28;20063;-69
2023/12/12 01:28:57;;;;;;;9.98;3.50;;;4.20;99.90;;;;;;4980536;28;20099;-68
2023/12/12 01:31:23;;;;;;;7.20;2.90;;;4.10;99.90;;;;;;4980175;28;20050;-69
2023/12/12 01:33:49;;;;;;;8.57;2.70;;;4.10;99.90;;;;;;4983149;28;20053;-69
2023/12/12 01:36:15;;;;;;;7.10;2.85;;;4.00;99.90;;;;;;4966736;28;20988;-69
2023/12/12 01:38:40;;;;;;;8.65;3.05;;;4.00;99.90;;;;;;5015905;28;20493;-69
2023/12/12 01:41:06;;;;;;;11.13;3.25;;;4.00;99.90;;;;;;4983530;28;20058;-69
2023/12/12 01:43:33;;;;;;;9.88;2.63;;;4.00;99.90;;;;;;4962616;28;20474;-69
2023/12/12 01:46:00;;;;;;;6.72;2.60;;;3.90;99.90;;;;;;4967072;28;20401;-69
2023/12/12 01:48:28;;;;;;;10.65;2.95;;;3.90;99.90;;;;;;4966875;28;20091;-69
2023/12/12 01:50:55;;;;;;;5.75;2.63;;;3.90;99.90;;;;;;5010584;28;20344;-69
2023/12/12 01:53:25;;;;;;;7.82;3.00;;;3.80;99.90;;;;;;4967641;28;20510;-69
2023/12/12 01:55:52;;;;;;;9.48;3.25;;;3.80;99.90;;;;;;4981961;28;20035;-69
2023/12/12 01:58:19;;;;;;;10.02;2.88;;;3.80;99.90;;;;;;4964972;28;20100;-69
2023/12/12 02:00:45;;;;;;;8.45;3.28;;;3.70;99.90;;;;;;4977579;28;20050;-70
2023/12/12 02:03:12;;;;;;;13.65;3.38;;;3.70;99.90;;;;;;4983678;28;20064;-69
2023/12/12 02:05:41;;;;;;;10.85;3.67;;;3.70;99.90;;;;;;4983371;28;20088;-70
2023/12/12 02:08:07;;;;;;;8.05;2.95;;;3.70;99.90;;;;;;4970303;28;20058;-70
2023/12/12 02:10:56;;;;;;;7.38;3.30;;;3.60;99.90;;;;;;4981627;28;20054;-69
2023/12/12 02:13:22;;;;;;;6.80;2.67;;;3.60;99.90;;;;;;4977457;28;21815;-70
2023/12/12 02:15:48;;;;;;;10.18;3.05;;;3.50;99.90;;;;;;4982333;28;20048;-70
2023/12/12 02:18:14;;;;;;;12.27;3.95;;;3.50;99.90;;;;;;4978985;28;20169;-75
2023/12/12 02:20:40;;;;;;;9.25;3.20;;;3.50;99.90;;;;;;5009604;28;20741;-70
2023/12/12 02:23:07;;;;;;;8.48;3.30;;;3.60;99.90;;;;;;5011849;28;20046;-69
2023/12/12 02:25:40;;;;;;;8.43;3.25;;;3.50;99.90;;;;;;4983300;28;20703;-70
2023/12/12 02:28:10;;;;;;;12.80;3.40;;;3.50;99.90;;;;;;5010345;27;20046;-69
2023/12/12 02:30:38;;;;;;;13.85;4.63;;;3.60;99.90;;;;;;4984598;28;20052;-69
2023/12/12 02:33:04;;;;;;;8.73;3.60;;;3.60;99.90;;;;;;4967437;28;20047;-69
2023/12/12 02:35:31;;;;;;;11.10;3.65;;;3.60;99.90;;;;;;4972566;28;20046;-69
2023/12/12 02:37:57;;;;;;;12.05;4.53;;;3.60;99.90;;;;;;4979424;28;20050;-69
2023/12/12 02:40:22;;;;;;;9.52;4.28;;;3.60;99.90;;;;;;5013766;27;20111;-69
2023/12/12 02:42:50;;;;;;;8.43;4.43;;;3.60;99.90;;;;;;4977907;28;20494;-69
2023/12/12 02:45:16;;;;;;;13.85;5.75;;;3.60;99.90;;;;;;4979921;28;20085;-69
2023/12/12 02:47:42;;;;;;;9.98;5.00;;;3.60;99.90;;;;;;4982160;28;20139;-69
2023/12/12 02:50:08;;;;;;;12.98;5.60;;;3.60;99.90;;;;;;4979094;28;20494;-69
2023/12/12 02:52:34;;;;;;;13.60;5.55;;;3.60;99.90;;;;;;4982989;28;20514;-69
2023/12/12 02:54:59;;;;;;;11.35;6.50;;;3.60;99.90;;;;;;4979727;28;20153;-69
2023/12/12 02:57:25;;;;;;;12.10;7.05;;;3.50;99.90;;;;;;5009779;27;20610;-69
2023/12/12 02:59:51;;;;;;;15.75;7.82;;;3.60;99.90;;;;;;4971678;28;20058;-69
2023/12/12 03:02:20;;;;;;;15.45;8.13;;;3.60;99.90;;;;;;4965092;28;20073;-69
2023/12/12 03:04:46;;;;;;;15.15;8.43;;;3.50;99.90;;;;;;4992695;28;20529;-69
2023/12/12 03:07:12;;;;;;;20.27;9.30;;;3.50;99.90;;;;;;4995362;28;20049;-69
2023/12/12 03:09:38;;;;;;;17.83;8.55;;;3.60;99.90;;;;;;5016686;28;20054;-69
2023/12/12 03:12:05;;;;;;;16.55;9.70;;;3.60;99.90;;;;;;4979348;28;20501;-69
2023/12/12 03:14:31;;;;;;;19.95;10.50;;;3.60;99.90;;;;;;4982109;28;20061;-69
2023/12/12 03:16:57;;;;;;;18.27;10.00;;;3.60;99.90;;;;;;4965311;28;20133;-69
2023/12/12 03:19:24;;;;;;;27.63;13.25;;;3.60;99.90;;;;;;4981518;28;20070;-69
2023/12/12 03:21:50;;;;;;;21.20;12.38;;;3.70;99.90;;;;;;4965998;28;20502;-69
2023/12/12 03:24:17;;;;;;;20.98;11.75;;;3.70;99.90;;;;;;4979441;28;20090;-69
2023/12/12 03:26:43;;;;;;;27.10;14.50;;;3.70;99.90;;;;;;4982429;28;20508;-69
2023/12/12 03:29:09;;;;;;;30.08;14.98;;;3.70;99.90;;;;;;4978266;28;20085;-69
2023/12/12 03:31:35;;;;;;;23.15;14.20;;;3.70;99.90;;;;;;4986056;28;20070;-69
2023/12/12 03:34:01;;;;;;;34.72;15.15;;;3.70;99.90;;;;;;4979563;28;20555;-69
2023/12/12 03:36:26;;;;;;;24.70;14.32;;;3.70;99.90;;;;;;4980814;28;20096;-69
2023/12/12 03:38:52;;;;;;;29.83;16.02;;;3.70;99.90;;;;;;4976902;28;20118;-69
2023/12/12 03:41:23;;;;;;;24.25;14.82;;;3.70;99.90;;;;;;4982258;28;20065;-69
2023/12/12 03:43:49;;;;;;;29.08;16.27;;;3.70;99.90;;;;;;4993952;28;20486;-69
2023/12/12 03:46:16;;;;;;;25.40;14.85;;;3.80;99.90;;;;;;4981657;28;20038;-69
2023/12/12 03:48:42;;;;;;;25.20;15.07;;;3.70;99.90;;;;;;4972511;28;20099;-69
2023/12/12 03:51:09;;;;;;;27.30;14.98;;;3.70;99.90;;;;;;4977833;28;20447;-69
2023/12/12 03:53:36;;;;;;;47.97;19.80;;;3.70;99.90;;;;;;4956320;28;20038;-69
2023/12/12 03:56:03;;;;;;;27.70;16.27;;;3.70;99.90;;;;;;4973424;28;20046;-69
2023/12/12 03:58:29;;;;;;;28.00;16.58;;;3.80;99.90;;;;;;4962343;28;20050;-69
2023/12/12 04:00:55;;;;;;;27.80;16.25;;;3.80;99.90;;;;;;5010022;28;20038;-69
2023/12/12 04:03:21;;;;;;;52.25;21.55;;;3.90;99.90;;;;;;4992418;28;20395;-69
2023/12/12 04:05:47;;;;;;;27.73;16.70;;;3.90;99.90;;;;;;4984946;28;20499;-69
2023/12/12 04:08:15;;;;;;;45.13;19.67;;;3.90;99.90;;;;;;4989458;28;20054;-69
2023/12/12 04:10:41;;;;;;;27.35;15.32;;;3.90;99.90;;;;;;4989840;28;20049;-69
2023/12/12 04:13:07;;;;;;;26.77;16.38;;;3.90;99.90;;;;;;5002541;28;20050;-69
2023/12/12 04:15:33;;;;;;;43.45;20.33;;;3.90;99.90;;;;;;4977423;28;20046;-69
2023/12/12 04:17:59;;;;;;;35.08;19.77;;;3.90;99.90;;;;;;4982902;28;20494;-69
2023/12/12 04:20:25;;;;;;;24.92;14.85;;;3.90;99.90;;;;;;4969754;28;20049;-69
2023/12/12 04:22:51;;;;;;;25.77;15.32;;;3.80;99.90;;;;;;4980330;28;20049;-69
2023/12/12 04:25:17;;;;;;;27.48;15.60;;;3.80;99.90;;;;;;5005640;28;20054;-69
2023/12/12 04:27:42;;;;;;;21.90;14.77;;;3.80;99.90;;;;;;4998473;28;20077;-69
2023/12/12 04:30:09;;;;;;;25.05;17.17;;;3.80;99.90;;;;;;4984074;28;20082;-69
2023/12/12 04:32:34;;;;;;;30.38;16.23;;;3.70;99.90;;;;;;4980113;28;20444;-69
2023/12/12 04:35:00;;;;;;;42.00;18.27;;;3.70;99.90;;;;;;5023851;27;20056;-69
2023/12/12 04:37:26;;;;;;;21.92;14.57;;;3.70;99.90;;;;;;5003914;28;20137;-69
2023/12/12 04:39:52;;;;;;;20.63;14.15;;;3.70;99.90;;;;;;4962318;28;20050;-69
2023/12/12 04:42:19;;;;;;;25.30;15.40;;;3.60;99.90;;;;;;4983179;28;20057;-69
2023/12/12 04:44:45;;;;;;;32.72;17.02;;;3.60;99.90;;;;;;4977147;28;20053;-69
2023/12/12 04:47:11;;;;;;;53.00;16.60;;;3.60;99.90;;;;;;4980767;28;20038;-69
2023/12/12 04:49:36;;;;;;;155.90;20.30;;;3.60;99.90;;;;;;4979732;28;20066;-69
2023/12/12 04:52:04;;;;;;;91.22;15.02;;;3.60;99.90;;;;;;4990103;28;20446;-69
2023/12/12 04:54:29;;;;;;;52.78;13.25;;;3.50;99.90;;;;;;5017535;28;20039;-69
2023/12/12 04:56:55;;;;;;;45.08;12.35;;;3.40;99.90;;;;;;4993623;28;20088;-69
2023/12/12 04:59:21;;;;;;;21.15;11.02;;;3.40;99.90;;;;;;4976456;28;20127;-70
2023/12/12 05:01:46;;;;;;;70.85;13.77;;;3.40;99.90;;;;;;4979617;28;20064;-69
2023/12/12 05:04:12;;;;;;;30.80;11.35;;;3.30;99.90;;;;;;4975862;28;20788;-69
2023/12/12 05:06:38;;;;;;;13.48;9.77;;;3.30;99.90;;;;;;4982061;28;20046;-69
2023/12/12 05:09:04;;;;;;;65.40;12.80;;;3.20;99.90;;;;;;4980365;28;20410;-69
2023/12/12 05:11:29;;;;;;;33.90;11.25;;;3.10;99.90;;;;;;5006723;28;20491;-69
2023/12/12 05:13:56;;;;;;;46.20;12.00;;;3.10;99.90;;;;;;4980657;28;20136;-69
2023/12/12 05:16:25;;;;;;;71.18;12.65;;;3.10;99.90;;;;;;4996156;28;20046;-69
2023/12/12 05:18:54;;;;;;;75.60;12.05;;;3.00;99.90;;;;;;4977043;28;20123;-69
2023/12/12 05:21:21;;;;;;;61.50;12.13;;;3.00;99.90;;;;;;5000538;28;20044;-69
2023/12/12 05:23:48;;;;;;;168.93;19.27;;;3.00;99.90;;;;;;5000878;28;20047;-69
2023/12/12 05:26:15;;;;;;;24.52;11.77;;;3.00;99.90;;;;;;5018558;28;20110;-69
2023/12/12 05:28:41;;;;;;;63.20;13.68;;;2.90;99.90;;;;;;4974643;28;20039;-69
2023/12/12 05:31:06;;;;;;;54.30;13.07;;;2.90;99.90;;;;;;5025796;28;20059;-69
2023/12/12 05:33:33;;;;;;;33.00;12.88;;;2.90;99.90;;;;;;5011963;28;20517;-69
2023/12/12 05:35:59;;;;;;;49.40;15.95;;;2.90;99.90;;;;;;4967947;28;20042;-69
2023/12/12 05:38:25;;;;;;;27.55;15.68;;;3.00;99.90;;;;;;4980560;28;20057;-69
2023/12/12 05:40:50;;;;;;;46.10;17.40;;;3.00;99.90;;;;;;4991761;28;20678;-69
2023/12/12 05:43:16;;;;;;;75.85;19.00;;;3.00;99.90;;;;;;4985070;28;20050;-69
2023/12/12 05:45:42;;;;;;;91.70;20.63;;;3.10;99.90;;;;;;4983816;28;20042;-68
2023/12/12 05:48:08;;;;;;;58.90;18.85;;;3.00;99.90;;;;;;4981444;28;20422;-69
2023/12/12 05:50:34;;;;;;;131.82;25.98;;;3.20;99.90;;;;;;4994899;28;20067;-70
2023/12/12 05:53:00;;;;;;;95.30;21.65;;;3.20;99.90;;;;;;5014538;28;20690;-69
2023/12/12 05:55:28;;;;;;;87.43;22.17;;;3.30;99.90;;;;;;4994774;28;20448;-69
2023/12/12 05:57:54;;;;;;;72.10;21.92;;;3.30;99.90;;;;;;4989381;28;20054;-69
2023/12/12 06:00:22;;;;;;;154.02;27.85;;;3.40;99.90;;;;;;4977094;28;20046;-69
2023/12/12 06:02:48;;;;;;;142.48;27.20;;;3.50;99.90;;;;;;4981680;28;20095;-69
2023/12/12 06:05:14;;;;;;;143.48;27.95;;;3.60;99.90;;;;;;5001921;28;20573;-69
2023/12/12 06:07:42;;;;;;;210.23;35.28;;;3.70;99.90;;;;;;5004207;28;20053;-69
2023/12/12 06:10:08;;;;;;;124.22;32.03;;;3.80;99.90;;;;;;5028809;28;20050;-69
2023/12/12 06:12:35;;;;;;;260.65;46.03;;;4.00;99.90;;;;;;5019791;28;20443;-69
2023/12/12 06:15:01;;;;;;;201.65;37.42;;;4.00;99.90;;;;;;5016102;28;20075;-69
2023/12/12 06:17:26;;;;;;;227.00;43.28;;;4.10;99.90;;;;;;4986062;28;20038;-69
2023/12/12 06:19:52;;;;;;;124.07;35.33;;;4.20;99.90;;;;;;4973779;28;20042;-69
2023/12/12 06:22:19;;;;;;;222.32;43.95;;;4.30;99.90;;;;;;4996333;28;20561;-69
2023/12/12 06:24:48;;;;;;;109.32;36.63;;;4.40;99.90;;;;;;4967627;28;20042;-69
2023/12/12 06:27:14;;;;;;;211.25;45.97;;;4.50;99.90;;;;;;4978567;28;20125;-69
2023/12/12 06:29:40;;;;;;;218.95;48.88;;;4.60;99.90;;;;;;5006632;28;20040;-69
2023/12/12 06:32:06;;;;;;;217.82;47.85;;;4.60;99.90;;;;;;5045747;28;20047;-69
2023/12/12 06:34:32;;;;;;;296.50;51.92;;;4.70;99.90;;;;;;5020825;28;20513;-69
2023/12/12 06:36:58;;;;;;;198.57;45.63;;;4.70;99.90;;;;;;4983523;28;20103;-70
2023/12/12 06:39:25;;;;;;;372.50;61.17;;;4.70;99.90;;;;;;4986731;28;20126;-69
2023/12/12 06:41:51;;;;;;;262.75;50.60;;;4.80;99.90;;;;;;5029803;28;20132;-70
2023/12/12 06:44:17;;;;;;;360.27;62.13;;;4.80;99.90;;;;;;4971886;28;20518;-69
2023/12/12 06:46:43;;;;;;;355.73;59.53;;;4.80;99.90;;;;;;5029129;28;20400;-69
2023/12/12 06:49:09;;;;;;;239.13;52.65;;;4.90;99.90;;;;;;5009157;28;20050;-72
2023/12/12 06:51:35;;;;;;;335.85;61.55;;;4.90;99.90;;;;;;4979854;28;20048;-73
2023/12/12 06:54:03;;;;;;;233.68;52.28;;;5.00;99.90;;;;;;4982179;28;20054;-73
2023/12/12 06:56:30;;;;;;;297.67;60.40;;;5.00;99.90;;;;;;4991628;28;20040;-72
2023/12/12 06:58:56;;;;;;;351.92;60.20;;;5.10;99.90;;;;;;5049097;27;20047;-73
2023/12/12 07:01:22;;;;;;;327.40;60.85;;;5.10;99.90;;;;;;4984759;28;20103;-73
2023/12/12 07:03:48;;;;;;;484.67;75.82;;;5.20;99.90;;;;;;5014627;28;20125;-72
2023/12/12 07:06:17;;;;;;;429.85;93.75;;;5.20;99.90;;;;;;5005570;28;20047;-73
2023/12/12 07:08:43;;;;;;;387.88;69.80;;;5.20;99.90;;;;;;4975479;28;20053;-72
2023/12/12 07:11:08;;;;;;;390.73;67.38;;;5.40;99.90;;;;;;5003611;28;20028;-72
2023/12/12 07:13:34;;;;;;;334.75;61.97;;;5.30;99.90;;;;;;5038575;28;20494;-72
2023/12/12 07:16:00;;;;;;;449.48;77.25;;;5.30;99.90;;;;;;5001231;28;20183;-72
2023/12/12 07:18:26;;;;;;;391.80;70.28;;;5.30;99.90;;;;;;5031477;27;20053;-72
2023/12/12 07:20:53;;;;;;;460.42;75.97;;;5.30;99.90;;;;;;5023672;28;20139;-74
2023/12/12 07:23:18;;;;;;;318.60;63.80;;;5.40;99.90;;;;;;4983066;28;20099;-74
2023/12/12 07:25:46;;;;;;;305.33;60.97;;;5.40;99.90;;;;;;4993511;28;20133;-72
2023/12/12 07:28:11;;;;;;;217.32;56.67;;;5.40;99.90;;;;;;4983508;28;20057;-72
2023/12/12 07:30:37;;;;;;;492.65;79.57;;;5.40;99.90;;;;;;4995427;28;21283;-72
2023/12/12 07:33:03;;;;;;;207.48;54.85;;;5.30;99.90;;;;;;4983104;28;20030;-73
2023/12/12 07:35:29;;;;;;;157.38;48.97;;;5.40;99.90;;;;;;4967362;28;20530;-72
2023/12/12 07:37:55;;;;;;;244.32;58.05;;;5.40;99.90;;;;;;4978344;28;20042;-73
2023/12/12 07:40:20;;;;;;;364.17;69.03;;;5.40;99.90;;;;;;4990257;28;20471;-73
2023/12/12 07:42:46;;;;;;;163.68;50.35;;;5.30;99.90;;;;;;4999184;28;20051;-73
2023/12/12 07:45:12;;;;;;;170.25;49.42;;;5.40;99.90;;;;;;4984595;28;20047;-73
2023/12/12 07:47:38;;;;;;;252.65;55.45;;;5.30;99.90;;;;;;5015020;28;20174;-73
2023/12/12 07:50:05;;;;;;;245.65;52.60;;;5.30;99.90;;;;;;4988938;28;20701;-75
2023/12/12 07:52:34;;;;;;;266.90;53.30;;;5.30;99.90;;;;;;4993245;28;20073;-73
2023/12/12 07:55:00;;;;;;;340.67;60.38;;;5.30;99.90;;;;;;4983926;28;20044;-73
2023/12/12 07:57:25;;;;;;;239.18;55.60;;;5.40;99.90;;;;;;4994004;28;20049;-73
2023/12/12 07:59:51;;;;;;;431.98;72.55;;;5.40;99.90;;;;;;5027151;28;20048;-73
2023/12/12 08:02:17;;;;;;;341.75;63.17;;;5.40;99.90;;;;;;4994123;28;20566;-73
2023/12/12 08:04:42;;;;;;;350.92;67.60;;;5.40;99.90;;;;;;5016657;28;20046;-73
2023/12/12 08:07:08;;;;;;;403.38;75.25;;;5.50;99.90;;;;;;4979812;28;20036;-73
2023/12/12 08:09:35;;;;;;;445.67;75.10;;;5.50;99.90;;;;;;4977962;28;20872;-73
2023/12/12 08:12:00;;;;;;;319.88;65.53;;;5.50;99.90;;;;;;4976670;28;20053;-73
2023/12/12 08:14:26;;;;;;;382.80;75.00;;;5.50;99.90;;;;;;4997585;28;20047;-73
2023/12/12 08:16:53;;;;;;;376.27;70.85;;;5.60;99.90;;;;;;5019068;28;20051;-73
2023/12/12 08:19:20;;;;;;;458.27;78.47;;;5.50;99.90;;;;;;4981776;28;20405;-73
2023/12/12 08:21:46;;;;;;;411.15;77.28;;;5.50;99.90;;;;;;5005442;28;20054;-73
2023/12/12 08:24:12;;;;;;;423.75;75.93;;;5.50;99.90;;;;;;5018511;28;20065;-73
2023/12/12 08:26:42;;;;;;;494.17;82.35;;;5.50;99.90;;;;;;4981848;28;20038;-73
2023/12/12 08:29:12;;;;;;;404.40;73.95;;;5.50;99.90;;;;;;4992757;28;20046;-73
2023/12/12 08:31:39;;;;;;;413.98;72.22;;;5.50;99.90;;;;;;4981481;28;20050;-72
2023/12/12 08:34:05;;;;;;;448.25;73.75;;;5.50;99.90;;;;;;4997584;28;20043;-73
2023/12/12 08:36:31;;;;;;;310.30;64.13;;;5.50;99.90;;;;;;5027743;28;20044;-72
2023/12/12 08:38:58;;;;;;;393.98;71.07;;;5.50;99.90;;;;;;4987132;28;20391;-73
2023/12/12 08:41:28;;;;;;;231.55;59.10;;;5.50;99.90;;;;;;4991133;28;20798;-72
2023/12/12 08:43:54;;;;;;;318.70;68.68;;;5.50;99.90;;;;;;4988025;28;20781;-75
2023/12/12 08:46:26;;;;;;;383.17;75.07;;;5.40;99.90;;;;;;5015774;28;20524;-73
2023/12/12 08:48:55;;;;;;;329.02;69.78;;;5.40;99.90;;;;;;4993797;28;20073;-72
2023/12/12 08:51:21;;;;;;;302.25;70.00;;;5.40;99.90;;;;;;5006815;28;20079;-72
2023/12/12 08:53:48;;;;;;;317.73;73.15;;;5.40;99.90;;;;;;5004045;28;20042;-73
2023/12/12 08:56:15;;;;;;;374.88;78.53;;;5.40;99.90;;;;;;4997710;28;20030;-73
2023/12/12 08:58:41;;;;;;;355.25;79.93;;;5.30;99.90;;;;;;4974226;28;20445;-72
2023/12/12 09:01:06;;;;;;;412.40;78.85;;;5.40;99.90;;;;;;4988602;28;20043;-73
2023/12/12 09:03:32;;;;;;;407.80;81.47;;;5.40;99.90;;;;;;5000617;28;20042;-72
2023/12/12 09:05:58;;;;;;;437.92;82.82;;;5.30;99.90;;;;;;5015809;28;20125;-77
2023/12/12 09:08:24;;;;;;;450.17;84.70;;;5.40;99.90;;;;;;4992599;28;20061;-77
2023/12/12 09:10:50;;;;;;;430.23;82.53;;;5.30;99.90;;;;;;4984419;28;20582;-78
2023/12/12 09:13:16;;;;;;;475.90;92.90;;;5.40;99.90;;;;;;4990105;28;20038;-77
2023/12/12 09:15:41;;;;;;;428.35;87.60;;;5.40;99.90;;;;;;5040602;28;20046;-77
2023/12/12 09:18:09;;;;;;;290.85;75.85;;;5.40;99.90;;;;;;5024216;28;20032;-77
2023/12/12 09:20:34;;;;;;;334.27;77.88;;;5.40;99.90;;;;;;4988137;28;20047;-77
2023/12/12 09:23:00;;;;;;;334.88;84.07;;;5.40;99.90;;;;;;4976685;28;20057;-77
2023/12/12 09:25:26;;;;;;;344.45;81.88;;;5.40;99.90;;;;;;4962057;28;20536;-77
2023/12/12 09:27:52;;;;;;;307.80;79.78;;;5.40;99.90;;;;;;5030474;28;20053;-77
2023/12/12 09:30:17;;;;;;;428.70;92.07;;;5.40;99.90;;;;;;5013254;28;20480;-74
2023/12/12 09:32:43;;;;;;;373.63;86.53;;;5.40;99.90;;;;;;5026130;28;20103;-74
2023/12/12 09:35:10;;;;;;;297.05;79.40;;;5.40;99.90;;;;;;5008544;28;20046;-74
2023/12/12 09:37:35;;;;;;;342.20;82.57;;;5.40;99.90;;;;;;4998459;28;20081;-74
2023/12/12 09:40:04;;;;;;;371.80;85.82;;;5.40;99.90;;;;;;5007935;28;20074;-74
2023/12/12 09:42:32;;;;;;;366.73;85.28;;;5.40;99.90;;;;;;5004804;28;20043;-74
2023/12/12 09:45:00;;;;;;;373.38;89.63;;;5.40;99.90;;;;;;4998448;28;20049;-74
2023/12/12 09:47:30;;;;;;;300.08;83.10;;;5.40;99.90;;;;;;5012022;28;20125;-74
2023/12/12 09:49:58;;;;;;;454.67;94.38;;;5.50;99.90;;;;;;5010602;28;20054;-75
2023/12/12 09:52:34;;;;;;;376.80;87.68;;;5.50;99.90;;;;;;5034607;27;20121;-74
2023/12/12 09:55:00;;;;;;;397.85;95.30;;;5.50;99.90;;;;;;4996655;28;20159;-75
2023/12/12 09:57:28;;;;;;;367.45;91.30;;;5.50;99.90;;;;;;4996351;28;20046;-74
2023/12/12 09:59:54;;;;;;;361.52;91.40;;;5.50;99.90;;;;;;5018793;28;20543;-73
2023/12/12 10:02:22;;;;;;;338.77;90.38;;;5.50;99.90;;;;;;4981865;28;20046;-73
2023/12/12 10:04:51;;;;;;;340.83;93.57;;;5.50;99.90;;;;;;4969025;28;20104;-72
2023/12/12 10:07:18;;;;;;;309.98;87.45;;;5.50;99.90;;;;;;5005448;28;20066;-73
2023/12/12 10:09:44;;;;;;;307.25;88.65;;;5.50;99.90;;;;;;4995521;28;20048;-73
2023/12/12 10:12:10;;;;;;;390.73;98.85;;;5.50;99.90;;;;;;4988049;28;22095;-73
2023/12/12 10:14:40;;;;;;;327.80;90.72;;;5.50;99.90;;;;;;4978421;28;20704;-73
2023/12/12 10:17:10;;;;;;;268.52;90.53;;;5.50;99.90;;;;;;4982863;28;20553;-73
2023/12/12 10:19:37;;;;;;;319.70;94.50;;;5.50;99.90;;;;;;4983176;28;20513;-74
2023/12/12 10:22:07;;;;;;;257.38;88.05;;;5.50;99.90;;;;;;5043517;27;20042;-74
2023/12/12 10:24:33;;;;;;;306.00;97.55;;;5.60;99.90;;;;;;4986392;28;20630;-73
2023/12/12 10:27:06;;;;;;;273.92;91.03;;;5.60;99.90;;;;;;5030348;28;20043;-73
2023/12/12 10:29:32;;;;;;;186.68;78.60;;;5.60;99.90;;;;;;4989089;28;20062;-74
2023/12/12 10:32:02;;;;;;;211.10;87.25;;;5.60;99.90;;;;;;5024231;28;20097;-74
2023/12/12 10:34:28;;;;;;;228.80;89.43;;;5.70;99.90;;;;;;4981627;28;20038;-74
2023/12/12 10:36:57;;;;;;;187.77;82.10;;;5.70;99.90;;;;;;5025609;28;20053;-74
2023/12/12 10:39:23;;;;;;;152.82;76.80;;;5.70;99.90;;;;;;5019982;28;20069;-73
2023/12/12 10:41:56;;;;;;;189.30;83.88;;;5.80;99.90;;;;;;5005561;28;20085;-74
2023/12/12 10:44:30;;;;;;;148.93;76.60;;;5.80;99.90;;;;;;5068534;27;20128;-74
2023/12/12 10:46:58;;;;;;;190.95;85.90;;;5.90;99.90;;;;;;4995299;28;20490;-72
2023/12/12 10:49:31;;;;;;;145.95;76.38;;;5.90;99.90;;;;;;5010684;28;20125;-75
2023/12/12 10:52:01;;;;;;;144.23;75.75;;;5.90;99.90;;;;;;4997667;28;20050;-74
2023/12/12 10:54:36;;;;;;;141.55;74.32;;;5.90;99.90;;;;;;4996387;28;20105;-74
2023/12/12 10:57:02;;;;;;;140.65;73.45;;;5.90;99.90;;;;;;4978106;28;20046;-75
2023/12/12 10:59:29;;;;;;;126.72;69.75;;;6.00;99.90;;;;;;4975298;28;20453;-75
2023/12/12 11:01:57;;;;;;;137.70;75.90;;;6.00;99.90;;;;;;4965828;28;20061;-75
2023/12/12 11:04:26;;;;;;;108.43;65.53;;;6.00;99.90;;;;;;4991543;28;20038;-74
2023/12/12 11:06:52;;;;;;;98.13;63.67;;;6.00;99.90;;;;;;5032154;28;20039;-74
2023/12/12 11:09:20;;;;;;;99.47;64.32;;;6.00;99.90;;;;;;5000530;28;20047;-74
2023/12/12 11:11:49;;;;;;;96.10;64.10;;;6.00;99.90;;;;;;5014181;28;20040;-74
2023/12/12 11:14:17;;;;;;;96.95;61.38;;;6.00;99.90;;;;;;4991080;28;20049;-73
2023/12/12 11:16:44;;;;;;;95.57;62.67;;;6.00;99.90;;;;;;5048744;28;20050;-73
2023/12/12 11:19:16;;;;;;;96.30;64.15;;;6.00;99.90;;;;;;4982358;28;20151;-73
2023/12/12 11:21:44;;;;;;;91.05;61.83;;;6.00;99.90;;;;;;4987362;28;20053;-74
2023/12/12 11:24:11;;;;;;;91.57;58.85;;;6.10;99.90;;;;;;5073169;27;20117;-73
2023/12/12 11:26:38;;;;;;;89.25;60.45;;;6.10;99.90;;;;;;5002249;28;20126;-74
2023/12/12 11:29:07;;;;;;;91.15;60.28;;;6.10;99.90;;;;;;4994216;28;20068;-74
2023/12/12 11:31:37;;;;;;;94.88;61.00;;;6.10;99.90;;;;;;5006944;28;20108;-74
2023/12/12 11:34:05;;;;;;;91.95;59.22;;;6.20;99.90;;;;;;5044106;28;20100;-73
2023/12/12 11:36:54;;;;;;;93.45;61.45;;;6.20;99.90;;;;;;4994494;28;20054;-74
2023/12/12 11:39:41;;;;;;;100.00;63.13;;;6.20;99.90;;;;;;5014425;28;20095;-74
2023/12/12 11:42:21;;;;;;;99.38;63.35;;;6.20;99.90;;;;;;5039614;27;20042;-74
2023/12/12 11:44:51;;;;;;;100.15;63.08;;;6.30;99.90;;;;;;4965745;28;20053;-74
2023/12/12 11:47:20;;;;;;;106.53;64.85;;;6.30;99.90;;;;;;5001890;28;20042;-73
2023/12/12 11:49:47;;;;;;;106.90;67.10;;;6.30;99.90;;;;;;4993883;28;20490;-73
2023/12/12 11:52:38;;;;;;;100.53;63.10;;;6.30;99.90;;;;;;4990341;28;20054;-74
2023/12/12 11:55:05;;;;;;;99.88;62.90;;;6.30;99.90;;;;;;5010723;28;20118;-74
2023/12/12 11:57:30;;;;;;;95.32;60.95;;;6.40;99.90;;;;;;4999717;28;20073;-73
2023/12/12 12:00:08;;;;;;;102.57;62.55;;;6.40;99.90;;;;;;4969269;28;20392;-74
2023/12/12 12:02:34;;;;;;;97.80;58.15;;;6.40;99.90;;;;;;4979218;28;20058;-74
2023/12/12 12:05:00;;;;;;;106.93;62.88;;;6.40;99.90;;;;;;4982043;28;20042;-74
2023/12/12 12:07:26;;;;;;;102.82;60.78;;;6.40;99.90;;;;;;5014072;28;20042;-74
2023/12/12 12:09:52;;;;;;;108.72;61.38;;;6.40;99.90;;;;;;4963999;28;20437;-74
2023/12/12 12:12:19;;;;;;;111.60;61.97;;;6.50;99.90;;;;;;4986730;28;20042;-75
2023/12/12 12:14:45;;;;;;;109.65;60.88;;;6.40;99.90;;;;;;4982084;28;20050;-75
2023/12/12 12:17:10;;;;;;;114.28;60.47;;;6.50;99.90;;;;;;4979691;28;20068;-74
2023/12/12 12:19:38;;;;;;;115.28;60.35;;;6.50;99.90;;;;;;4989714;28;20042;-74
2023/12/12 12:22:09;;;;;;;126.40;59.53;;;6.50;99.90;;;;;;4979938;28;20046;-75
2023/12/12 12:24:46;;;;;;;120.15;59.50;;;6.50;99.90;;;;;;4982174;28;20072;-75
2023/12/12 12:27:16;;;;;;;124.80;60.22;;;6.60;99.90;;;;;;4977660;28;20050;-74
2023/12/12 12:29:42;;;;;;;130.25;60.38;;;6.60;99.90;;;;;;4966599;28;20054;-79
2023/12/12 12:32:17;;;;;;;124.07;61.33;;;6.60;99.90;;;;;;4977985;28;20227;-79
2023/12/12 12:34:43;;;;;;;130.65;59.78;;;6.60;99.90;;;;;;5002974;28;20179;-79